createdAt,value
2018-10-12T00:01:14.285Z,99.90
2018-10-12T00:03:41.575Z,99.90
2018-10-12T00:06:08.896Z,99.90
2018-10-12T00:08:36.307Z,99.90
2018-10-12T00:11:03.563Z,99.90
2018-10-12T00:13:30.807Z,99.90
2018-10-12T00:15:58.040Z,99.90
2018-10-12T00:18:25.280Z,99.90
2018-10-12T00:20:52.531Z,99.90
2018-10-12T00:23:19.817Z,99.90
2018-10-12T00:25:47.156Z,99.90
2018-10-12T00:28:14.426Z,99.90
2018-10-12T00:30:41.682Z,99.90
2018-10-12T00:33:08.928Z,99.90
2018-10-12T00:35:36.197Z,99.90
2018-10-12T00:38:03.458Z,99.90
2018-10-12T00:40:30.716Z,99.90
2018-10-12T00:42:57.964Z,99.90
2018-10-12T00:45:25.220Z,99.90
2018-10-12T00:47:58.275Z,99.90
2018-10-12T00:50:25.532Z,99.90
2018-10-12T00:52:52.789Z,99.90
2018-10-12T00:55:20.060Z,99.90
2018-10-12T00:57:47.303Z,99.90
2018-10-12T01:00:14.589Z,99.90
2018-10-12T01:02:41.820Z,99.90
2018-10-12T01:05:08.844Z,99.90
2018-10-12T01:07:36.092Z,99.90
2018-10-12T01:10:03.391Z,99.90
2018-10-12T01:12:32.648Z,99.90
2018-10-12T01:15:00.472Z,99.90
2018-10-12T01:17:28.303Z,99.90
2018-10-12T01:19:56.294Z,99.90
2018-10-12T01:22:24.053Z,99.90
2018-10-12T01:24:51.327Z,99.90
2018-10-12T01:27:18.607Z,99.90
2018-10-12T01:29:45.932Z,99.90
2018-10-12T01:32:18.903Z,99.90
2018-10-12T01:34:46.212Z,99.90
2018-10-12T01:37:13.501Z,99.90
2018-10-12T01:39:40.764Z,99.90
2018-10-12T01:42:08.053Z,99.90
2018-10-12T01:44:35.312Z,99.90
2018-10-12T01:47:02.588Z,99.90
2018-10-12T01:49:29.852Z,99.90
2018-10-12T01:51:57.144Z,99.90
2018-10-12T01:54:24.399Z,99.90
2018-10-12T01:56:51.708Z,99.90
2018-10-12T01:59:19.296Z,99.90
2018-10-12T02:01:46.535Z,99.90
2018-10-12T02:04:13.913Z,99.90
2018-10-12T02:06:41.192Z,99.90
2018-10-12T02:09:08.463Z,99.90
2018-10-12T02:11:35.739Z,99.90
2018-10-12T02:14:03.007Z,99.90
2018-10-12T02:16:30.270Z,99.90
2018-10-12T02:18:57.829Z,99.90
2018-10-12T02:21:25.138Z,99.90
2018-10-12T02:23:52.411Z,99.90
2018-10-12T02:26:19.681Z,99.90
2018-10-12T02:28:46.940Z,99.90
2018-10-12T02:31:14.229Z,99.90
2018-10-12T02:33:41.496Z,99.90
2018-10-12T02:36:08.759Z,99.90
2018-10-12T02:38:36.012Z,99.90
2018-10-12T02:41:03.296Z,99.90
2018-10-12T02:43:30.551Z,99.90
2018-10-12T02:45:57.831Z,99.90
2018-10-12T02:48:25.384Z,99.90
2018-10-12T02:50:53.264Z,99.90
2018-10-12T02:53:20.650Z,99.90
2018-10-12T02:55:47.909Z,99.90
2018-10-12T02:58:17.829Z,99.90
2018-10-12T03:00:45.123Z,99.90
2018-10-12T03:03:12.570Z,99.90
2018-10-12T03:05:40.073Z,99.90
2018-10-12T03:08:07.349Z,99.90
2018-10-12T03:10:34.620Z,99.90
2018-10-12T03:13:01.900Z,99.90
2018-10-12T03:15:29.143Z,99.90
2018-10-12T03:17:56.416Z,99.90
2018-10-12T03:20:23.675Z,99.90
2018-10-12T03:22:50.937Z,99.90
2018-10-12T03:25:18.256Z,99.90
2018-10-12T03:27:57.342Z,99.90
2018-10-12T03:30:24.728Z,99.90
2018-10-12T03:32:52.035Z,99.90
2018-10-12T03:35:19.347Z,99.90
2018-10-12T03:37:46.636Z,99.90
2018-10-12T03:40:13.948Z,99.90
2018-10-12T03:42:41.235Z,99.90
2018-10-12T03:45:08.520Z,99.90
2018-10-12T03:47:35.807Z,99.90
2018-10-12T03:50:03.472Z,99.90
2018-10-12T03:52:30.745Z,99.90
2018-10-12T03:54:58.075Z,99.90
2018-10-12T03:57:25.332Z,99.90
2018-10-12T03:59:52.564Z,99.90
2018-10-12T04:02:19.801Z,99.90
2018-10-12T04:04:47.200Z,99.90
2018-10-12T04:07:14.491Z,99.90
2018-10-12T04:09:41.744Z,99.90
2018-10-12T04:12:08.992Z,99.90
2018-10-12T04:14:36.232Z,99.90
2018-10-12T04:17:03.492Z,99.90
2018-10-12T04:19:30.761Z,99.90
2018-10-12T04:21:58.036Z,99.90
2018-10-12T04:24:25.300Z,99.90
2018-10-12T04:26:52.564Z,99.90
2018-10-12T04:29:19.835Z,99.90
2018-10-12T04:31:47.165Z,99.90
2018-10-12T04:34:14.409Z,99.90
2018-10-12T04:36:41.659Z,99.90
2018-10-12T04:39:20.488Z,99.90
2018-10-12T04:41:47.772Z,99.90
2018-10-12T04:44:15.028Z,99.90
2018-10-12T04:46:43.292Z,99.90
2018-10-12T04:49:13.012Z,99.90
2018-10-12T04:51:49.512Z,99.90
2018-10-12T04:54:17.080Z,99.90
2018-10-12T04:56:44.907Z,99.90
2018-10-12T04:59:12.195Z,99.90
2018-10-12T05:01:39.485Z,99.90
2018-10-12T05:04:06.760Z,99.90
2018-10-12T05:06:34.053Z,99.90
2018-10-12T05:09:01.319Z,99.90
2018-10-12T05:11:28.587Z,99.90
2018-10-12T05:13:55.844Z,99.90
2018-10-12T05:16:23.144Z,99.90
2018-10-12T05:18:50.467Z,99.90
2018-10-12T05:21:17.726Z,99.90
2018-10-12T05:23:44.977Z,99.90
2018-10-12T05:26:12.243Z,99.90
2018-10-12T05:28:39.617Z,99.90
2018-10-12T05:31:07.063Z,99.90
2018-10-12T05:33:34.288Z,99.90
2018-10-12T05:36:01.558Z,99.90
2018-10-12T05:38:29.971Z,99.90
2018-10-12T05:40:57.415Z,99.90
2018-10-12T05:43:24.749Z,99.90
2018-10-12T05:45:51.920Z,99.90
2018-10-12T05:48:30.913Z,99.90
2018-10-12T05:50:59.507Z,99.90
2018-10-12T05:53:27.215Z,99.90
2018-10-12T05:55:54.574Z,99.90
2018-10-12T05:58:21.879Z,99.90
2018-10-12T06:00:49.578Z,99.90
2018-10-12T06:03:16.944Z,99.90
2018-10-12T06:05:44.260Z,99.90
2018-10-12T06:08:11.567Z,99.90
2018-10-12T06:10:38.955Z,99.90
2018-10-12T06:13:06.283Z,99.90
2018-10-12T06:15:33.580Z,99.90
2018-10-12T06:18:00.869Z,99.90
2018-10-12T06:20:28.248Z,99.90
2018-10-12T06:22:55.674Z,99.90
2018-10-12T06:25:22.976Z,99.90
2018-10-12T06:27:50.345Z,99.90
2018-10-12T06:30:17.669Z,99.90
2018-10-12T06:32:45.152Z,99.90
2018-10-12T06:35:12.423Z,99.90
2018-10-12T06:37:39.666Z,99.90
2018-10-12T06:40:06.968Z,99.90
2018-10-12T06:42:34.264Z,99.90
2018-10-12T06:45:01.739Z,99.90
2018-10-12T06:47:29.132Z,99.90
2018-10-12T06:49:56.395Z,99.90
2018-10-12T06:52:23.666Z,99.90
2018-10-12T06:54:50.952Z,99.90
2018-10-12T06:57:18.244Z,99.90
2018-10-12T06:59:45.548Z,99.90
2018-10-12T07:02:15.269Z,99.90
2018-10-12T07:04:42.956Z,99.90
2018-10-12T07:07:10.233Z,99.90
2018-10-12T07:09:37.512Z,99.90
2018-10-12T07:12:04.847Z,99.90
2018-10-12T07:14:32.139Z,99.90
2018-10-12T07:16:59.411Z,99.90
2018-10-12T07:19:26.731Z,99.90
2018-10-12T07:21:54.376Z,99.90
2018-10-12T07:24:21.334Z,99.90
2018-10-12T07:26:48.606Z,99.90
2018-10-12T07:29:15.853Z,99.90
2018-10-12T07:31:43.109Z,99.90
2018-10-12T07:34:10.365Z,99.90
2018-10-12T07:36:37.635Z,99.90
2018-10-12T07:39:07.027Z,99.90
2018-10-12T07:41:34.312Z,99.90
2018-10-12T07:44:01.573Z,99.90
2018-10-12T07:46:28.838Z,99.90
2018-10-12T07:48:56.116Z,99.90
2018-10-12T07:51:23.409Z,99.90
2018-10-12T07:53:50.679Z,99.90
2018-10-12T07:56:17.966Z,99.90
2018-10-12T07:58:45.225Z,99.90
2018-10-12T08:01:12.498Z,99.90
2018-10-12T08:03:39.788Z,99.90
2018-10-12T08:06:07.059Z,99.90
2018-10-12T08:08:34.288Z,99.90
2018-10-12T08:11:01.532Z,99.90
2018-10-12T08:13:28.790Z,99.90
2018-10-12T08:15:57.071Z,99.90
2018-10-12T08:18:24.817Z,99.90
2018-10-12T08:20:52.477Z,99.90
2018-10-12T08:23:19.882Z,99.50
2018-10-12T08:25:47.559Z,93.10
2018-10-12T08:28:14.928Z,87.00
2018-10-12T08:30:42.171Z,81.60
2018-10-12T08:33:09.424Z,73.80
2018-10-12T08:35:36.728Z,71.80
2018-10-12T08:38:03.995Z,60.70
2018-10-12T08:40:31.227Z,57.70
2018-10-12T08:42:58.493Z,53.30
2018-10-12T08:47:53.948Z,67.40
2018-10-12T08:50:21.199Z,49.60
2018-10-12T08:52:48.515Z,50.00
2018-10-12T08:55:15.803Z,47.20
2018-10-12T09:00:12.875Z,46.10
2018-10-12T09:02:40.107Z,44.00
2018-10-12T09:05:07.428Z,44.10
2018-10-12T09:07:34.791Z,44.70
2018-10-12T09:10:02.270Z,44.70
2018-10-12T09:14:56.861Z,42.30
2018-10-12T09:17:24.475Z,41.40
2018-10-12T09:19:52.431Z,38.30
2018-10-12T09:22:19.720Z,39.40
2018-10-12T09:24:46.984Z,40.60
2018-10-12T09:27:14.303Z,40.60
2018-10-12T09:34:36.096Z,36.50
2018-10-12T09:37:03.562Z,37.70
2018-10-12T09:39:31.420Z,37.20
2018-10-12T09:41:59.104Z,36.30
2018-10-12T09:44:26.386Z,35.40
2018-10-12T09:46:53.639Z,35.60
2018-10-12T09:49:20.952Z,35.00
2018-10-12T09:51:48.172Z,34.80
2018-10-12T09:54:15.504Z,33.80
2018-10-12T10:01:47.615Z,31.60
2018-10-12T10:04:22.327Z,31.40
2018-10-12T10:19:08.396Z,30.00
2018-10-12T10:21:35.775Z,34.60
2018-10-12T10:24:03.180Z,35.00
2018-10-12T10:26:30.603Z,29.20
2018-10-12T10:28:58.064Z,28.50
2018-10-12T10:31:25.448Z,28.90
2018-10-12T10:33:52.872Z,28.50
2018-10-12T10:36:20.221Z,28.30
2018-10-12T10:38:47.746Z,28.30
2018-10-12T10:41:15.163Z,27.90
2018-10-12T10:43:42.507Z,26.90
2018-10-12T10:46:09.914Z,27.20
2018-10-12T10:48:37.221Z,30.60
2018-10-12T10:58:26.652Z,27.90
2018-10-12T11:01:00.517Z,47.00
2018-10-12T11:03:27.766Z,47.70
2018-10-12T11:05:55.093Z,29.30
2018-10-12T11:08:22.471Z,29.00
2018-10-12T11:18:11.625Z,26.00
2018-10-12T11:20:39.023Z,26.20
2018-10-12T11:23:06.289Z,26.10
2018-10-12T11:25:33.636Z,28.10
2018-10-12T11:30:28.319Z,31.40
2018-10-12T11:37:52.686Z,36.80
2018-10-12T11:40:19.978Z,61.10
2018-10-12T11:43:00.252Z,51.60
2018-10-12T11:45:27.684Z,42.90
2018-10-12T11:47:55.431Z,53.50
2018-10-12T11:50:22.861Z,55.00
2018-10-12T11:52:50.145Z,56.40
2018-10-12T11:57:46.597Z,87.10
2018-10-12T12:00:13.885Z,47.30
2018-10-12T12:02:41.160Z,65.60
2018-10-12T12:05:08.521Z,56.20
2018-10-12T12:07:35.810Z,57.00
2018-10-12T12:10:03.184Z,56.60
2018-10-12T12:12:30.459Z,57.80
2018-10-12T12:14:57.773Z,76.40
2018-10-12T12:17:25.092Z,51.60
2018-10-12T12:19:54.386Z,84.60
2018-10-12T12:22:21.701Z,57.60
2018-10-12T12:24:49.033Z,38.90
2018-10-12T12:39:33.285Z,27.00
2018-10-12T12:42:00.650Z,44.10
2018-10-12T12:44:28.073Z,26.80
2018-10-12T12:46:55.384Z,26.80
2018-10-12T12:49:23.129Z,27.00
2018-10-12T13:01:40.335Z,25.70
2018-10-12T13:04:07.687Z,26.20
2018-10-12T13:09:03.070Z,25.40
2018-10-12T13:13:57.673Z,42.10
2018-10-12T13:16:24.975Z,42.80
2018-10-12T13:18:55.801Z,24.50
2018-10-12T13:32:07.836Z,27.60
2018-10-12T13:34:35.125Z,25.40
2018-10-12T13:37:02.517Z,25.00
2018-10-12T13:39:29.809Z,25.60
2018-10-12T13:41:57.200Z,27.10
2018-10-12T13:44:24.513Z,39.10
2018-10-12T13:56:41.065Z,54.20
2018-10-12T13:59:08.373Z,46.50
2018-10-12T14:01:35.694Z,40.30
2018-10-12T14:08:58.158Z,24.40
2018-10-12T14:18:50.206Z,25.20
2018-10-12T14:21:17.449Z,54.40
2018-10-12T14:28:39.511Z,41.10
2018-10-12T14:31:06.812Z,25.70
2018-10-12T14:33:34.182Z,25.50
2018-10-12T14:36:01.562Z,25.30
2018-10-12T14:38:28.892Z,42.90
2018-10-12T14:40:56.215Z,51.10
2018-10-12T14:53:16.261Z,24.80
2018-10-12T14:55:51.702Z,25.70
2018-10-12T14:58:19.623Z,26.10
2018-10-12T15:00:46.926Z,26.30
2018-10-12T15:03:14.185Z,25.60
2018-10-12T15:05:41.731Z,25.70
2018-10-12T15:08:08.954Z,25.40
2018-10-12T15:10:36.241Z,25.80
2018-10-12T15:13:03.714Z,26.00
2018-10-12T15:17:58.802Z,35.90
2018-10-12T15:20:26.402Z,27.00
2018-10-12T15:22:53.824Z,27.70
2018-10-12T15:25:21.219Z,28.00
2018-10-12T15:27:48.478Z,28.40
2018-10-12T15:30:16.436Z,28.50
2018-10-12T15:32:43.838Z,29.50
2018-10-12T15:37:39.225Z,44.20
2018-10-12T15:42:33.890Z,35.00
2018-10-12T15:47:28.441Z,39.90
2018-10-12T15:49:55.776Z,39.70
2018-10-12T15:52:23.084Z,42.20
2018-10-12T15:54:50.703Z,44.50
2018-10-12T15:57:23.725Z,48.40
2018-10-12T15:59:51.065Z,50.00
2018-10-12T16:02:18.357Z,53.00
2018-10-12T16:04:45.919Z,55.00
2018-10-12T16:07:14.065Z,56.60
2018-10-12T16:09:41.912Z,58.70
2018-10-12T16:12:09.280Z,59.30
2018-10-12T16:14:36.747Z,62.40
2018-10-12T16:17:03.976Z,63.20
2018-10-12T16:19:31.369Z,66.20
2018-10-12T16:21:58.686Z,67.90
2018-10-12T16:24:26.093Z,69.50
2018-10-12T16:26:53.497Z,74.40
2018-10-12T16:29:20.793Z,79.60
2018-10-12T16:31:48.085Z,82.10
2018-10-12T16:34:15.367Z,86.90
2018-10-12T16:36:42.712Z,90.00
2018-10-12T16:39:10.502Z,92.10
2018-10-12T16:41:38.412Z,93.50
2018-10-12T16:44:05.781Z,94.70
2018-10-12T16:46:33.091Z,94.20
2018-10-12T16:49:00.594Z,94.80
2018-10-12T16:51:27.949Z,95.40
2018-10-12T16:53:55.277Z,96.80
2018-10-12T16:56:22.681Z,98.20
2018-10-12T16:58:49.974Z,99.80
2018-10-12T17:01:17.479Z,99.90
2018-10-12T17:03:44.754Z,99.90
2018-10-12T17:06:12.057Z,99.90
2018-10-12T17:08:39.332Z,99.90
2018-10-12T17:11:06.687Z,99.90
2018-10-12T17:13:33.892Z,99.90
2018-10-12T17:16:01.149Z,99.90
2018-10-12T17:18:28.909Z,99.90
2018-10-12T17:20:56.114Z,99.90
2018-10-12T17:23:23.395Z,99.90
2018-10-12T17:25:50.654Z,99.90
2018-10-12T17:28:18.612Z,99.90
2018-10-12T17:33:13.115Z,99.90
2018-10-12T17:35:42.308Z,99.90
2018-10-12T17:38:09.579Z,99.90
2018-10-12T17:40:36.868Z,99.90
2018-10-12T17:43:04.251Z,99.90
2018-10-12T17:45:31.488Z,99.90
2018-10-12T17:47:58.848Z,99.90
2018-10-12T17:50:26.096Z,99.90
2018-10-12T17:52:53.358Z,99.90
2018-10-12T17:55:20.629Z,99.90
2018-10-12T18:00:15.261Z,99.90
2018-10-12T18:02:42.436Z,99.90
2018-10-12T18:05:09.694Z,99.90
2018-10-12T18:07:36.964Z,99.90
2018-10-12T18:12:31.748Z,99.90
2018-10-12T18:14:59.348Z,99.90
2018-10-12T18:17:26.584Z,99.90
2018-10-12T18:19:53.991Z,99.90
2018-10-12T18:22:21.232Z,99.90
2018-10-12T18:24:48.576Z,99.90
2018-10-12T18:27:15.796Z,99.90
2018-10-12T18:29:43.139Z,99.90
2018-10-12T18:32:10.422Z,99.90
2018-10-12T18:34:37.800Z,99.90
2018-10-12T18:37:05.068Z,99.90
2018-10-12T18:39:32.388Z,99.90
2018-10-12T18:41:59.716Z,99.90
2018-10-12T18:44:26.996Z,99.90
2018-10-12T18:46:54.343Z,99.90
2018-10-12T18:49:21.611Z,99.90
2018-10-12T18:51:48.908Z,99.90
2018-10-12T18:54:16.288Z,99.90
2018-10-12T18:56:43.751Z,99.90
2018-10-12T18:59:10.999Z,99.90
2018-10-12T19:09:07.035Z,99.90
2018-10-12T19:14:04.061Z,99.90
2018-10-12T19:18:58.596Z,99.90
2018-10-12T19:21:25.860Z,99.90
2018-10-12T19:23:53.159Z,99.90
2018-10-12T19:26:20.391Z,99.90
2018-10-12T19:28:47.646Z,99.90
2018-10-12T19:31:14.976Z,99.90
2018-10-12T19:33:42.177Z,99.90
2018-10-12T19:36:11.490Z,99.90
2018-10-12T19:38:40.324Z,99.90
2018-10-12T19:43:34.920Z,99.90
2018-10-12T19:48:29.420Z,99.90
2018-10-12T19:50:56.763Z,99.90
2018-10-12T19:53:24.022Z,99.90
2018-10-12T19:58:20.565Z,99.90
2018-10-12T20:00:47.795Z,99.90
2018-10-12T20:03:15.041Z,99.90
2018-10-12T20:05:42.276Z,99.90
2018-10-12T20:08:09.565Z,99.90
2018-10-12T20:10:36.873Z,99.90
2018-10-12T20:13:04.159Z,99.90
2018-10-12T20:15:31.431Z,99.90
2018-10-12T20:17:58.668Z,99.90
2018-10-12T20:22:53.195Z,99.90
2018-10-12T20:25:20.590Z,99.90
2018-10-12T20:27:47.841Z,99.90
2018-10-12T20:30:15.118Z,99.90
2018-10-12T20:32:42.412Z,99.90
2018-10-12T20:35:09.719Z,99.90
2018-10-12T20:37:36.994Z,99.90
2018-10-12T20:40:04.332Z,99.90
2018-10-12T20:42:31.650Z,99.90
2018-10-12T20:44:58.948Z,99.90
2018-10-12T20:47:26.195Z,99.90
2018-10-12T20:49:53.540Z,99.90
2018-10-12T20:52:21.041Z,99.90
2018-10-12T20:54:48.296Z,99.90
2018-10-12T20:57:15.651Z,99.90
2018-10-12T20:59:42.984Z,99.90
2018-10-12T21:02:10.258Z,99.90
2018-10-12T21:04:37.529Z,99.90
2018-10-12T21:07:05.173Z,99.90
2018-10-12T21:09:32.582Z,99.90
2018-10-12T21:11:59.824Z,99.90
2018-10-12T21:14:27.068Z,99.90
2018-10-12T21:16:54.461Z,99.90
2018-10-12T21:19:21.670Z,99.90
2018-10-12T21:21:48.930Z,99.90
2018-10-12T21:24:16.284Z,99.90
2018-10-12T21:26:43.573Z,99.90
2018-10-12T21:29:10.928Z,99.90
2018-10-12T21:31:38.252Z,99.90
2018-10-12T21:34:05.570Z,99.90
2018-10-12T21:36:32.814Z,99.90
2018-10-12T21:39:00.153Z,99.90
2018-10-12T21:41:27.449Z,99.90
2018-10-12T21:43:54.799Z,99.90
2018-10-12T21:46:22.128Z,99.90
2018-10-12T21:48:49.380Z,99.90
2018-10-12T21:51:16.676Z,99.90
2018-10-12T21:53:43.917Z,99.90
2018-10-12T21:56:11.186Z,99.90
2018-10-12T21:58:38.453Z,99.90
2018-10-12T22:01:05.921Z,99.90
2018-10-12T22:03:34.924Z,99.90
2018-10-12T22:06:02.260Z,99.90
2018-10-12T22:08:35.253Z,99.90
2018-10-12T22:11:03.111Z,99.90
2018-10-12T22:13:30.449Z,99.90
2018-10-12T22:15:57.711Z,99.90
2018-10-12T22:18:25.004Z,99.90
2018-10-12T22:20:52.483Z,99.90
2018-10-12T22:23:19.853Z,99.90
2018-10-12T22:25:47.366Z,99.90
2018-10-12T22:28:14.676Z,99.90
2018-10-12T22:30:42.030Z,99.90
2018-10-12T22:33:09.474Z,99.90
2018-10-12T22:35:36.919Z,99.90
2018-10-12T22:38:04.345Z,99.90
2018-10-12T22:40:31.690Z,99.90
2018-10-12T22:42:59.038Z,99.90
2018-10-12T22:45:26.413Z,99.90
2018-10-12T22:47:55.788Z,99.90
2018-10-12T22:50:23.232Z,99.90
2018-10-12T22:52:50.841Z,99.90
2018-10-12T22:55:18.080Z,99.90
2018-10-12T22:57:45.347Z,99.90
2018-10-12T23:00:12.840Z,99.90
2018-10-12T23:02:40.201Z,99.90
2018-10-12T23:05:07.528Z,99.90
2018-10-12T23:07:35.450Z,99.90
2018-10-12T23:10:02.973Z,99.90
2018-10-12T23:12:31.128Z,99.90
2018-10-12T23:14:58.534Z,99.90
2018-10-12T23:17:26.004Z,99.90
2018-10-12T23:19:53.429Z,99.90
2018-10-12T23:22:20.740Z,99.90
2018-10-12T23:24:47.983Z,99.90
2018-10-12T23:27:15.219Z,99.90
2018-10-12T23:29:42.528Z,99.90
2018-10-12T23:32:09.816Z,99.90
2018-10-12T23:34:37.067Z,99.90
2018-10-12T23:37:04.350Z,99.90
2018-10-12T23:39:31.615Z,99.90
2018-10-12T23:41:58.863Z,99.90
2018-10-12T23:44:26.092Z,99.90
2018-10-12T23:46:53.373Z,99.90
2018-10-12T23:49:20.608Z,99.90
2018-10-12T23:51:47.844Z,99.90
2018-10-12T23:54:15.099Z,99.90
2018-10-12T23:56:42.353Z,99.90
2018-10-12T23:59:09.594Z,99.90
